Terminal Aerodrome Forecast
Issued by NWS

Home | Current Version | Previous Version | Text Only | Print | Product List | Glossary On
Versions: 1 2 3 4 5 6 7 8 9 10 11 12 13 14 15 16 17
000
FTUS43 KDLH 310536
TAFBRD
TAF
KBRD 310536Z 3106/0106 14003KT P6SM FEW040
      TEMPO 3108/3111 4SM BR
     FM311500 16010KT P6SM VCSH BKN040
     FM010100 14006KT P6SM SCT030=

USA.gov is the U.S. government's official web portal to all federal, state and local government web resources and services.